Terminal Aerodrome Forecast
Issued by NWS

Home | Current Version | Previous Version | Graphics & Text | Print | Product List | Glossary On
Versions: 1 2 3 4 5 6 7 8 9 10 11 12 13 14 15 16 17 18 19 20 21
000
FTUS43 KTOP 041700
TAFFOE
TAF
KFOE 041729Z 0418/0518 19011KT P6SM SCT150
     FM050100 15006KT P6SM VCTS SCT050CB
     FM050600 17007KT P6SM SCT050 BKN120
     FM051600 18015G22KT P6SM SCT250=

USA.gov is the U.S. government's official web portal to all federal, state and local government web resources and services.